Řízení letového provozu České republiky
Letiste: LKKB Aktualizace: 11.12.2019 06:00:27  UTC
 METAR LKKB 11.12. 06:00 ...
METAR LKKB 110600Z 16008KT CAVOK M02/M04 Q1018 NOSIG RMK BLU BLU=
 TAF LKKB 11.12. 05:00 ...
TAF LKKB 110500Z 1106/1206 16007KT CAVOK      BECMG 1200/1202 BKN030=